sensor_id;sensor_type;location;lat;lon;timestamp;pressure;altitude;pressure_sealevel;temperature;humidity
19795;BME280;10057;59.402;17.866;2023-11-25T00:00:46;99407.78;;;-1.54;78.36
19795;BME280;10057;59.402;17.866;2023-11-25T00:03:14;99412.13;;;-1.53;79.02
19795;BME280;10057;59.402;17.866;2023-11-25T00:05:41;99417.31;;;-1.52;79.67
19795;BME280;10057;59.402;17.866;2023-11-25T00:08:08;99430.34;;;-1.58;79.31
19795;BME280;10057;59.402;17.866;2023-11-25T00:10:35;99420.81;;;-1.56;79.83
19795;BME280;10057;59.402;17.866;2023-11-25T00:13:02;99427.75;;;-1.58;79.79
19795;BME280;10057;59.402;17.866;2023-11-25T00:15:30;99434.72;;;-1.57;79.53
19795;BME280;10057;59.402;17.866;2023-11-25T00:17:56;99446.81;;;-1.56;80.14
19795;BME280;10057;59.402;17.866;2023-11-25T00:20:23;99448.56;;;-1.58;79.22
19795;BME280;10057;59.402;17.866;2023-11-25T00:22:52;99452.94;;;-1.60;79.07
19795;BME280;10057;59.402;17.866;2023-11-25T00:25:18;99467.69;;;-1.62;78.86
19795;BME280;10057;59.402;17.866;2023-11-25T00:27:46;99465.97;;;-1.63;79.30
19795;BME280;10057;59.402;17.866;2023-11-25T00:30:13;99466.88;;;-1.67;78.46
19795;BME280;10057;59.402;17.866;2023-11-25T00:32:41;99466.88;;;-1.67;78.90
19795;BME280;10057;59.402;17.866;2023-11-25T00:35:08;99470.31;;;-1.68;78.78
19795;BME280;10057;59.402;17.866;2023-11-25T00:37:35;99472.06;;;-1.69;79.37
19795;BME280;10057;59.402;17.866;2023-11-25T00:40:03;99485.94;;;-1.70;79.52
19795;BME280;10057;59.402;17.866;2023-11-25T00:42:37;99486.78;;;-1.68;79.62
19795;BME280;10057;59.402;17.866;2023-11-25T00:45:07;99484.22;;;-1.72;79.42
19795;BME280;10057;59.402;17.866;2023-11-25T00:47:36;99490.28;;;-1.70;79.68
19795;BME280;10057;59.402;17.866;2023-11-25T00:50:10;99493.75;;;-1.70;79.77
19795;BME280;10057;59.402;17.866;2023-11-25T00:52:38;99503.28;;;-1.69;79.42
19795;BME280;10057;59.402;17.866;2023-11-25T00:55:05;99497.22;;;-1.69;79.82
19795;BME280;10057;59.402;17.866;2023-11-25T00:57:34;99518.03;;;-1.72;79.30
19795;BME280;10057;59.402;17.866;2023-11-25T01:00:00;99512.88;;;-1.77;78.40
19795;BME280;10057;59.402;17.866;2023-11-25T01:02:27;99526.75;;;-1.78;77.96
19795;BME280;10057;59.402;17.866;2023-11-25T01:04:55;99537.16;;;-1.79;78.30
19795;BME280;10057;59.402;17.866;2023-11-25T01:07:22;99536.28;;;-1.80;78.61
19795;BME280;10057;59.402;17.866;2023-11-25T01:09:49;99541.50;;;-1.80;79.18
19795;BME280;10057;59.402;17.866;2023-11-25T01:12:15;99541.50;;;-1.80;79.10
19795;BME280;10057;59.402;17.866;2023-11-25T01:14:42;99544.06;;;-1.78;79.68
19795;BME280;10057;59.402;17.866;2023-11-25T01:17:09;99550.16;;;-1.78;79.21
19795;BME280;10057;59.402;17.866;2023-11-25T01:19:36;99562.28;;;-1.78;78.95
19795;BME280;10057;59.402;17.866;2023-11-25T01:22:03;99563.16;;;-1.78;79.40
19795;BME280;10057;59.402;17.866;2023-11-25T01:24:30;99557.94;;;-1.79;79.29
19795;BME280;10057;59.402;17.866;2023-11-25T01:26:57;99562.34;;;-1.84;79.19
19795;BME280;10057;59.402;17.866;2023-11-25T01:29:24;99562.31;;;-1.86;78.71
19795;BME280;10057;59.402;17.866;2023-11-25T01:31:51;99576.19;;;-1.88;78.24
19795;BME280;10057;59.402;17.866;2023-11-25T01:34:18;99571.00;;;-1.88;79.00
19795;BME280;10057;59.402;17.866;2023-11-25T01:36:44;99582.28;;;-1.91;78.61
19795;BME280;10057;59.402;17.866;2023-11-25T01:39:11;99580.56;;;-1.94;79.08
19795;BME280;10057;59.402;17.866;2023-11-25T01:41:38;99591.00;;;-1.98;77.66
19795;BME280;10057;59.402;17.866;2023-11-25T01:44:05;99610.91;;;-1.99;77.74
19795;BME280;10057;59.402;17.866;2023-11-25T01:46:37;99601.41;;;-2.01;77.56
19795;BME280;10057;59.402;17.866;2023-11-25T01:49:06;99587.53;;;-2.02;77.83
19795;BME280;10057;59.402;17.866;2023-11-25T01:51:41;99594.47;;;-2.04;77.60
19795;BME280;10057;59.402;17.866;2023-11-25T01:54:12;99597.06;;;-2.02;78.70
19795;BME280;10057;59.402;17.866;2023-11-25T01:56:41;99594.50;;;-2.07;77.96
19795;BME280;10057;59.402;17.866;2023-11-25T01:59:08;99598.81;;;-2.06;77.91
19795;BME280;10057;59.402;17.866;2023-11-25T02:01:38;99600.56;;;-2.05;78.22
19795;BME280;10057;59.402;17.866;2023-11-25T02:04:05;99607.47;;;-2.05;78.49
19795;BME280;10057;59.402;17.866;2023-11-25T02:06:32;99614.41;;;-2.12;77.65
19795;BME280;10057;59.402;17.866;2023-11-25T02:08:59;99624.81;;;-2.09;77.65
19795;BME280;10057;59.402;17.866;2023-11-25T02:11:25;99621.34;;;-2.12;77.09
19795;BME280;10057;59.402;17.866;2023-11-25T02:13:52;99625.72;;;-2.18;76.19
19795;BME280;10057;59.402;17.866;2023-11-25T02:16:19;99636.13;;;-2.21;77.35
19795;BME280;10057;59.402;17.866;2023-11-25T02:18:47;99637.88;;;-2.27;76.53
19795;BME280;10057;59.402;17.866;2023-11-25T02:21:13;99643.06;;;-2.33;75.62
19795;BME280;10057;59.402;17.866;2023-11-25T02:23:40;99637.03;;;-2.40;75.29
19795;BME280;10057;59.402;17.866;2023-11-25T02:26:08;99655.22;;;-2.45;75.43
19795;BME280;10057;59.402;17.866;2023-11-25T02:28:34;99653.50;;;-2.49;76.60
19795;BME280;10057;59.402;17.866;2023-11-25T02:31:02;99653.50;;;-2.58;75.79
19795;BME280;10057;59.402;17.866;2023-11-25T02:33:33;99656.09;;;-2.64;75.43
19795;BME280;10057;59.402;17.866;2023-11-25T02:36:04;99687.28;;;-2.73;74.36
19795;BME280;10057;59.402;17.866;2023-11-25T02:38:30;99670.84;;;-2.80;74.09
19795;BME280;10057;59.402;17.866;2023-11-25T02:40:57;99667.41;;;-2.83;74.24
19795;BME280;10057;59.402;17.866;2023-11-25T02:43:24;99680.38;;;-2.87;75.09
19795;BME280;10057;59.402;17.866;2023-11-25T02:45:52;99673.44;;;-2.92;75.77
19795;BME280;10057;59.402;17.866;2023-11-25T02:48:19;99701.97;;;-3.00;70.65
19795;BME280;10057;59.402;17.866;2023-11-25T02:50:46;99688.13;;;-3.02;73.49
19795;BME280;10057;59.402;17.866;2023-11-25T02:53:14;99690.72;;;-3.02;72.15
19795;BME280;10057;59.402;17.866;2023-11-25T02:55:41;99686.41;;;-2.98;74.27
19795;BME280;10057;59.402;17.866;2023-11-25T02:58:07;99695.06;;;-2.96;74.85
19795;BME280;10057;59.402;17.866;2023-11-25T03:00:34;99702.84;;;-2.95;74.40
19795;BME280;10057;59.402;17.866;2023-11-25T03:03:06;99707.19;;;-2.97;73.42
19795;BME280;10057;59.402;17.866;2023-11-25T03:05:40;99708.03;;;-2.98;73.49
19795;BME280;10057;59.402;17.866;2023-11-25T03:08:13;99709.78;;;-2.97;73.67
19795;BME280;10057;59.402;17.866;2023-11-25T03:10:40;99708.91;;;-2.97;73.93
19795;BME280;10057;59.402;17.866;2023-11-25T03:13:14;99712.38;;;-3.00;73.13
19795;BME280;10057;59.402;17.866;2023-11-25T03:15:41;99713.22;;;-3.02;70.95
19795;BME280;10057;59.402;17.866;2023-11-25T03:18:08;99708.03;;;-2.96;73.41
19795;BME280;10057;59.402;17.866;2023-11-25T03:20:36;99710.66;;;-2.93;73.05
19795;BME280;10057;59.402;17.866;2023-11-25T03:23:02;99704.56;;;-2.88;73.94
19795;BME280;10057;59.402;17.866;2023-11-25T03:25:30;99721.00;;;-2.84;74.09
19795;BME280;10057;59.402;17.866;2023-11-25T03:28:00;99721.03;;;-2.82;73.26
19795;BME280;10057;59.402;17.866;2023-11-25T03:30:31;99715.81;;;-2.81;71.50
19795;BME280;10057;59.402;17.866;2023-11-25T03:32:59;99724.50;;;-2.74;72.69
19795;BME280;10057;59.402;17.866;2023-11-25T03:35:27;99740.94;;;-2.71;73.35
19795;BME280;10057;59.402;17.866;2023-11-25T03:37:54;99730.56;;;-2.66;74.38
19795;BME280;10057;59.402;17.866;2023-11-25T03:40:20;99752.19;;;-2.64;73.67
19795;BME280;10057;59.402;17.866;2023-11-25T03:42:48;99748.72;;;-2.60;75.06
19795;BME280;10057;59.402;17.866;2023-11-25T03:45:15;99743.53;;;-2.60;75.02
19795;BME280;10057;59.402;17.866;2023-11-25T03:47:43;99743.53;;;-2.58;74.69
19795;BME280;10057;59.402;17.866;2023-11-25T03:50:13;99739.22;;;-2.61;72.76
19795;BME280;10057;59.402;17.866;2023-11-25T03:52:40;99747.00;;;-2.58;75.13
19795;BME280;10057;59.402;17.866;2023-11-25T03:55:10;99766.06;;;-2.59;74.06
19795;BME280;10057;59.402;17.866;2023-11-25T03:57:38;99751.34;;;-2.55;73.90
19795;BME280;10057;59.402;17.866;2023-11-25T04:00:05;99755.69;;;-2.56;72.92
19795;BME280;10057;59.402;17.866;2023-11-25T04:02:45;99763.44;;;-2.54;73.86
19795;BME280;10057;59.402;17.866;2023-11-25T04:05:13;99764.31;;;-2.54;73.50
19795;BME280;10057;59.402;17.866;2023-11-25T04:07:40;99750.47;;;-2.59;69.36
19795;BME280;10057;59.402;17.866;2023-11-25T04:10:08;99747.00;;;-2.61;72.19
19795;BME280;10057;59.402;17.866;2023-11-25T04:12:49;99767.78;;;-2.61;72.51
19795;BME280;10057;59.402;17.866;2023-11-25T04:15:18;99766.03;;;-2.60;72.47
19795;BME280;10057;59.402;17.866;2023-11-25T04:17:48;99766.06;;;-2.62;72.58
19795;BME280;10057;59.402;17.866;2023-11-25T04:20:16;99771.25;;;-2.62;73.23
19795;BME280;10057;59.402;17.866;2023-11-25T04:22:52;99776.41;;;-2.64;72.91
19795;BME280;10057;59.402;17.866;2023-11-25T04:25:19;99778.16;;;-2.64;73.54
19795;BME280;10057;59.402;17.866;2023-11-25T04:27:47;99779.91;;;-2.62;74.09
19795;BME280;10057;59.402;17.866;2023-11-25T04:30:15;99768.66;;;-2.62;74.03
19795;BME280;10057;59.402;17.866;2023-11-25T04:32:44;99775.59;;;-2.46;75.12
19795;BME280;10057;59.402;17.866;2023-11-25T04:35:12;99773.84;;;-2.30;73.90
19795;BME280;10057;59.402;17.866;2023-11-25T04:37:43;99760.00;;;-2.29;72.04
19795;BME280;10057;59.402;17.866;2023-11-25T04:40:12;99767.78;;;-2.27;73.39
19795;BME280;10057;59.402;17.866;2023-11-25T04:42:42;99785.09;;;-2.28;72.62
19795;BME280;10057;59.402;17.866;2023-11-25T04:45:11;99773.84;;;-2.27;73.64
19795;BME280;10057;59.402;17.866;2023-11-25T04:47:47;99788.56;;;-2.30;71.67
19795;BME280;10057;59.402;17.866;2023-11-25T04:50:15;99806.75;;;-2.36;68.12
19795;BME280;10057;59.402;17.866;2023-11-25T04:52:42;99798.09;;;-2.34;71.88
19795;BME280;10057;59.402;17.866;2023-11-25T04:55:10;99777.31;;;-2.32;71.40
19795;BME280;10057;59.402;17.866;2023-11-25T04:57:41;99821.50;;;-2.32;71.40
19795;BME280;10057;59.402;17.866;2023-11-25T05:00:08;99792.03;;;-2.31;71.93
19795;BME280;10057;59.402;17.866;2023-11-25T05:02:37;99794.63;;;-2.31;73.12
19795;BME280;10057;59.402;17.866;2023-11-25T05:05:06;99794.63;;;-2.30;72.10
19795;BME280;10057;59.402;17.866;2023-11-25T05:07:34;99785.13;;;-2.32;71.86
19795;BME280;10057;59.402;17.866;2023-11-25T05:10:01;99788.59;;;-2.29;72.52
19795;BME280;10057;59.402;17.866;2023-11-25T05:12:29;99789.44;;;-2.27;72.59
19795;BME280;10057;59.402;17.866;2023-11-25T05:14:56;99798.97;;;-2.27;72.48
19795;BME280;10057;59.402;17.866;2023-11-25T05:17:25;99790.31;;;-2.25;72.60
19795;BME280;10057;59.402;17.866;2023-11-25T05:19:53;99802.44;;;-2.25;71.80
19795;BME280;10057;59.402;17.866;2023-11-25T05:22:19;99798.97;;;-2.24;70.68
19795;BME280;10057;59.402;17.866;2023-11-25T05:24:47;99807.63;;;-2.25;69.41
19795;BME280;10057;59.402;17.866;2023-11-25T05:27:14;99796.34;;;-2.23;72.62
19795;BME280;10057;59.402;17.866;2023-11-25T05:29:41;99793.78;;;-2.21;73.37
19795;BME280;10057;59.402;17.866;2023-11-25T05:32:07;99801.56;;;-2.18;74.04
19795;BME280;10057;59.402;17.866;2023-11-25T05:34:35;99798.09;;;-2.17;74.26
19795;BME280;10057;59.402;17.866;2023-11-25T05:37:02;99801.56;;;-2.15;73.95
19795;BME280;10057;59.402;17.866;2023-11-25T05:39:30;99800.69;;;-2.14;73.97
19795;BME280;10057;59.402;17.866;2023-11-25T05:41:56;99802.41;;;-2.13;74.88
19795;BME280;10057;59.402;17.866;2023-11-25T05:44:23;99806.72;;;-2.12;74.13
19795;BME280;10057;59.402;17.866;2023-11-25T05:46:54;99805.00;;;-2.13;72.51
19795;BME280;10057;59.402;17.866;2023-11-25T05:49:21;99817.16;;;-2.10;73.91
19795;BME280;10057;59.402;17.866;2023-11-25T05:51:48;99805.03;;;-2.08;74.10
19795;BME280;10057;59.402;17.866;2023-11-25T05:54:18;99819.72;;;-2.06;73.80
19795;BME280;10057;59.402;17.866;2023-11-25T05:56:45;99825.81;;;-2.04;74.48
19795;BME280;10057;59.402;17.866;2023-11-25T05:59:15;99824.06;;;-2.03;73.34
19795;BME280;10057;59.402;17.866;2023-11-25T06:01:43;99817.16;;;-2.04;72.39
19795;BME280;10057;59.402;17.866;2023-11-25T06:04:09;99820.59;;;-1.99;73.54
19795;BME280;10057;59.402;17.866;2023-11-25T06:06:36;99834.47;;;-1.97;74.01
19795;BME280;10057;59.402;17.866;2023-11-25T06:09:06;99844.84;;;-1.99;72.87
19795;BME280;10057;59.402;17.866;2023-11-25T06:11:33;99847.44;;;-1.99;74.01
19795;BME280;10057;59.402;17.866;2023-11-25T06:13:59;99857.00;;;-1.99;73.77
19795;BME280;10057;59.402;17.866;2023-11-25T06:16:26;99852.66;;;-2.00;74.21
19795;BME280;10057;59.402;17.866;2023-11-25T06:18:53;99869.13;;;-2.03;74.78
19795;BME280;10057;59.402;17.866;2023-11-25T06:21:21;99866.50;;;-2.06;74.55
19795;BME280;10057;59.402;17.866;2023-11-25T06:23:49;99875.19;;;-2.07;75.20
19795;BME280;10057;59.402;17.866;2023-11-25T06:26:17;99883.88;;;-2.08;75.48
19795;BME280;10057;59.402;17.866;2023-11-25T06:28:46;99881.25;;;-2.12;76.46
19795;BME280;10057;59.402;17.866;2023-11-25T06:31:14;99882.97;;;-2.16;76.13
19795;BME280;10057;59.402;17.866;2023-11-25T06:33:41;99880.38;;;-2.18;76.04
19795;BME280;10057;59.402;17.866;2023-11-25T06:36:09;99884.69;;;-2.23;77.03
19795;BME280;10057;59.402;17.866;2023-11-25T06:38:37;99870.00;;;-2.25;77.35
19795;BME280;10057;59.402;17.866;2023-11-25T06:41:04;99876.91;;;-2.23;77.31
19795;BME280;10057;59.402;17.866;2023-11-25T06:43:31;99880.38;;;-2.25;77.28
19795;BME280;10057;59.402;17.866;2023-11-25T06:45:58;99883.84;;;-2.26;77.60
19795;BME280;10057;59.402;17.866;2023-11-25T06:48:26;99898.56;;;-2.28;77.22
19795;BME280;10057;59.402;17.866;2023-11-25T06:50:56;99901.16;;;-2.28;77.76
19795;BME280;10057;59.402;17.866;2023-11-25T06:53:22;99893.38;;;-2.28;77.93
19795;BME280;10057;59.402;17.866;2023-11-25T06:55:49;99902.00;;;-2.29;78.04
19795;BME280;10057;59.402;17.866;2023-11-25T06:58:16;99900.31;;;-2.32;77.61
19795;BME280;10057;59.402;17.866;2023-11-25T07:00:44;99908.06;;;-2.33;78.16
19795;BME280;10057;59.402;17.866;2023-11-25T07:03:11;99908.91;;;-2.36;78.20
19795;BME280;10057;59.402;17.866;2023-11-25T07:05:41;99913.25;;;-2.36;78.45
19795;BME280;10057;59.402;17.866;2023-11-25T07:08:09;99908.09;;;-2.35;78.62
19795;BME280;10057;59.402;17.866;2023-11-25T07:10:36;99918.47;;;-2.33;78.09
19795;BME280;10057;59.402;17.866;2023-11-25T07:13:05;99915.03;;;-2.32;79.07
19795;BME280;10057;59.402;17.866;2023-11-25T07:15:32;99914.16;;;-2.31;78.81
19795;BME280;10057;59.402;17.866;2023-11-25T07:17:59;99917.59;;;-2.31;79.11
19795;BME280;10057;59.402;17.866;2023-11-25T07:20:26;99910.69;;;-2.32;79.07
19795;BME280;10057;59.402;17.866;2023-11-25T07:22:53;99909.81;;;-2.26;79.18
19795;BME280;10057;59.402;17.866;2023-11-25T07:25:20;99913.28;;;-2.24;78.92
19795;BME280;10057;59.402;17.866;2023-11-25T07:27:47;99904.63;;;-2.23;78.74
19795;BME280;10057;59.402;17.866;2023-11-25T07:30:14;99910.69;;;-2.20;78.75
19795;BME280;10057;59.402;17.866;2023-11-25T07:32:43;99903.78;;;-2.21;78.74
19795;BME280;10057;59.402;17.866;2023-11-25T07:35:11;99913.31;;;-2.21;78.48
19795;BME280;10057;59.402;17.866;2023-11-25T07:37:39;99908.09;;;-2.21;78.67
19795;BME280;10057;59.402;17.866;2023-11-25T07:40:07;99908.97;;;-2.22;78.87
19795;BME280;10057;59.402;17.866;2023-11-25T07:42:43;99923.69;;;-2.24;78.39
19795;BME280;10057;59.402;17.866;2023-11-25T07:45:10;99922.81;;;-2.25;78.09
19795;BME280;10057;59.402;17.866;2023-11-25T07:47:37;99924.53;;;-2.27;78.42
19795;BME280;10057;59.402;17.866;2023-11-25T07:50:04;99916.78;;;-2.10;79.29
19795;BME280;10057;59.402;17.866;2023-11-25T07:52:31;99928.06;;;-1.94;78.25
19795;BME280;10057;59.402;17.866;2023-11-25T07:54:58;99930.66;;;-1.96;78.09
19795;BME280;10057;59.402;17.866;2023-11-25T07:57:25;99927.16;;;-1.99;78.58
19795;BME280;10057;59.402;17.866;2023-11-25T07:59:53;99919.38;;;-2.05;78.41
19795;BME280;10057;59.402;17.866;2023-11-25T08:02:19;99922.84;;;-2.08;78.61
19795;BME280;10057;59.402;17.866;2023-11-25T08:04:46;99921.97;;;-2.13;78.02
19795;BME280;10057;59.402;17.866;2023-11-25T08:07:13;99908.13;;;-2.15;78.18
19795;BME280;10057;59.402;17.866;2023-11-25T08:09:42;99918.50;;;-2.15;77.83
19795;BME280;10057;59.402;17.866;2023-11-25T08:12:09;99921.97;;;-2.13;78.33
19795;BME280;10057;59.402;17.866;2023-11-25T08:14:36;99923.72;;;-2.15;77.82
19795;BME280;10057;59.402;17.866;2023-11-25T08:17:02;99925.41;;;-2.16;78.66
19795;BME280;10057;59.402;17.866;2023-11-25T08:19:29;99927.16;;;-2.13;78.19
19795;BME280;10057;59.402;17.866;2023-11-25T08:21:56;99929.78;;;-2.15;77.84
19795;BME280;10057;59.402;17.866;2023-11-25T08:24:23;99924.59;;;-2.11;77.89
19795;BME280;10057;59.402;17.866;2023-11-25T08:26:50;99930.66;;;-2.11;78.16
19795;BME280;10057;59.402;17.866;2023-11-25T08:29:16;99941.03;;;-2.06;78.11
19795;BME280;10057;59.402;17.866;2023-11-25T08:31:45;99938.44;;;-2.05;78.63
19795;BME280;10057;59.402;17.866;2023-11-25T08:34:12;99924.56;;;-2.02;78.21
19795;BME280;10057;59.402;17.866;2023-11-25T08:36:39;99935.84;;;-2.03;78.42
19795;BME280;10057;59.402;17.866;2023-11-25T08:39:11;99932.41;;;-1.98;78.30
19795;BME280;10057;59.402;17.866;2023-11-25T08:41:40;99932.38;;;-1.96;78.42
19795;BME280;10057;59.402;17.866;2023-11-25T08:44:10;99933.25;;;-2.00;78.42
19795;BME280;10057;59.402;17.866;2023-11-25T08:46:40;99933.25;;;-1.94;78.22
19795;BME280;10057;59.402;17.866;2023-11-25T08:49:11;99936.72;;;-1.91;78.52
19795;BME280;10057;59.402;17.866;2023-11-25T08:51:41;99943.66;;;-1.85;78.46
19795;BME280;10057;59.402;17.866;2023-11-25T08:54:13;99934.09;;;-1.81;78.40
19795;BME280;10057;59.402;17.866;2023-11-25T08:56:41;99933.28;;;-1.74;78.61
19795;BME280;10057;59.402;17.866;2023-11-25T08:59:10;99943.66;;;-1.68;78.00
19795;BME280;10057;59.402;17.866;2023-11-25T09:01:38;99928.03;;;-1.65;78.49
19795;BME280;10057;59.402;17.866;2023-11-25T09:04:06;99932.38;;;-1.61;78.39
19795;BME280;10057;59.402;17.866;2023-11-25T09:06:36;99925.44;;;-1.59;77.94
19795;BME280;10057;59.402;17.866;2023-11-25T09:09:06;99930.66;;;-1.53;78.34
19795;BME280;10057;59.402;17.866;2023-11-25T09:11:35;99930.66;;;-1.50;78.33
19795;BME280;10057;59.402;17.866;2023-11-25T09:14:02;99922.84;;;-1.47;78.32
19795;BME280;10057;59.402;17.866;2023-11-25T09:16:31;99930.63;;;-1.45;78.00
19795;BME280;10057;59.402;17.866;2023-11-25T09:18:58;99926.28;;;-1.48;77.84
19795;BME280;10057;59.402;17.866;2023-11-25T09:21:26;99928.03;;;-1.48;77.85
19795;BME280;10057;59.402;17.866;2023-11-25T09:23:53;99940.16;;;-1.47;77.84
19795;BME280;10057;59.402;17.866;2023-11-25T09:26:22;99935.84;;;-1.47;78.21
19795;BME280;10057;59.402;17.866;2023-11-25T09:28:51;99959.25;;;-1.48;78.29
19795;BME280;10057;59.402;17.866;2023-11-25T09:31:22;99936.69;;;-1.48;78.02
19795;BME280;10057;59.402;17.866;2023-11-25T09:33:51;99939.31;;;-1.51;78.14
19795;BME280;10057;59.402;17.866;2023-11-25T09:36:18;99936.72;;;-1.52;78.05
19795;BME280;10057;59.402;17.866;2023-11-25T09:38:45;99941.06;;;-1.50;78.15
19795;BME280;10057;59.402;17.866;2023-11-25T09:41:12;99945.38;;;-1.52;77.69
19795;BME280;10057;59.402;17.866;2023-11-25T09:43:41;99948.88;;;-1.47;78.31
19795;BME280;10057;59.402;17.866;2023-11-25T09:46:09;99940.19;;;-1.49;78.10
19795;BME280;10057;59.402;17.866;2023-11-25T09:48:37;99924.56;;;-1.44;78.32
19795;BME280;10057;59.402;17.866;2023-11-25T09:51:07;99935.81;;;-1.40;78.10
19795;BME280;10057;59.402;17.866;2023-11-25T09:53:36;99937.56;;;-1.36;78.22
19795;BME280;10057;59.402;17.866;2023-11-25T09:56:06;99932.34;;;-1.38;77.94
19795;BME280;10057;59.402;17.866;2023-11-25T09:58:34;99941.03;;;-1.37;78.18
19795;BME280;10057;59.402;17.866;2023-11-25T10:01:02;99943.63;;;-1.36;77.58
19795;BME280;10057;59.402;17.866;2023-11-25T10:03:33;99941.03;;;-1.34;77.62
19795;BME280;10057;59.402;17.866;2023-11-25T10:06:01;99934.09;;;-1.35;77.65
19795;BME280;10057;59.402;17.866;2023-11-25T10:08:29;99949.69;;;-1.37;77.83
19795;BME280;10057;59.402;17.866;2023-11-25T10:11:06;99964.44;;;-1.37;77.55
19795;BME280;10057;59.402;17.866;2023-11-25T10:13:42;99963.59;;;-1.39;77.45
19795;BME280;10057;59.402;17.866;2023-11-25T10:16:10;99980.94;;;-1.46;77.77
19795;BME280;10057;59.402;17.866;2023-11-25T10:18:37;99991.34;;;-1.48;78.20
19795;BME280;10057;59.402;17.866;2023-11-25T10:21:05;99984.38;;;-1.47;78.24
19795;BME280;10057;59.402;17.866;2023-11-25T10:23:34;99989.63;;;-1.49;78.58
19795;BME280;10057;59.402;17.866;2023-11-25T10:26:02;99986.16;;;-1.52;78.93
19795;BME280;10057;59.402;17.866;2023-11-25T10:28:32;99988.75;;;-1.52;79.11
19795;BME280;10057;59.402;17.866;2023-11-25T10:31:04;99995.66;;;-1.54;79.53
19795;BME280;10057;59.402;17.866;2023-11-25T10:33:32;99993.09;;;-1.56;79.48
19795;BME280;10057;59.402;17.866;2023-11-25T10:36:01;99993.94;;;-1.58;79.74
19795;BME280;10057;59.402;17.866;2023-11-25T10:38:28;99987.03;;;-1.56;80.00
19795;BME280;10057;59.402;17.866;2023-11-25T10:40:59;99984.41;;;-1.53;80.62
19795;BME280;10057;59.402;17.866;2023-11-25T10:43:27;99983.53;;;-1.51;80.09
19795;BME280;10057;59.402;17.866;2023-11-25T10:46:07;99985.28;;;-1.47;80.63
19795;BME280;10057;59.402;17.866;2023-11-25T10:48:38;99996.53;;;-1.45;81.07
19795;BME280;10057;59.402;17.866;2023-11-25T10:51:10;99990.47;;;-1.42;80.72
19795;BME280;10057;59.402;17.866;2023-11-25T10:53:37;99993.06;;;-1.40;81.11
19795;BME280;10057;59.402;17.866;2023-11-25T10:56:06;99994.81;;;-1.36;80.47
19795;BME280;10057;59.402;17.866;2023-11-25T10:58:34;99998.28;;;-1.34;80.99
19795;BME280;10057;59.402;17.866;2023-11-25T11:01:02;100006.09;;;-1.33;80.90
19795;BME280;10057;59.402;17.866;2023-11-25T11:06:25;99995.66;;;-1.37;81.48
19795;BME280;10057;59.402;17.866;2023-11-25T11:08:55;100003.47;;;-1.37;81.23
19795;BME280;10057;59.402;17.866;2023-11-25T11:11:25;100004.34;;;-1.37;81.21
19795;BME280;10057;59.402;17.866;2023-11-25T11:14:06;100005.22;;;-1.36;80.71
19795;BME280;10057;59.402;17.866;2023-11-25T11:19:16;100005.22;;;-1.39;81.40
19795;BME280;10057;59.402;17.866;2023-11-25T11:21:49;100008.69;;;-1.40;81.71
19795;BME280;10057;59.402;17.866;2023-11-25T11:24:22;100002.63;;;-1.39;82.15
19795;BME280;10057;59.402;17.866;2023-11-25T11:27:03;100006.06;;;-1.37;82.03
19795;BME280;10057;59.402;17.866;2023-11-25T11:29:47;100013.91;;;-1.36;83.11
19795;BME280;10057;59.402;17.866;2023-11-25T11:32:18;100008.69;;;-1.37;82.64
19795;BME280;10057;59.402;17.866;2023-11-25T11:34:46;100019.09;;;-1.37;82.82
19795;BME280;10057;59.402;17.866;2023-11-25T11:37:15;100026.03;;;-1.35;82.74
19795;BME280;10057;59.402;17.866;2023-11-25T11:45:13;100037.31;;;-1.30;83.20
19795;BME280;10057;59.402;17.866;2023-11-25T11:47:57;100027.78;;;-1.29;83.19
19795;BME280;10057;59.402;17.866;2023-11-25T11:50:28;100037.31;;;-1.28;82.91
19795;BME280;10057;59.402;17.866;2023-11-25T12:00:41;100030.34;;;-1.23;83.02
19795;BME280;10057;59.402;17.866;2023-11-25T12:03:08;100036.44;;;-1.24;83.20
19795;BME280;10057;59.402;17.866;2023-11-25T12:05:36;100046.00;;;-1.22;82.99
19795;BME280;10057;59.402;17.866;2023-11-25T12:08:03;100048.56;;;-1.20;83.04
19795;BME280;10057;59.402;17.866;2023-11-25T12:10:30;100046.00;;;-1.18;82.56
19795;BME280;10057;59.402;17.866;2023-11-25T12:12:57;100050.34;;;-1.16;82.93
19795;BME280;10057;59.402;17.866;2023-11-25T12:15:24;100046.84;;;-1.15;82.17
19795;BME280;10057;59.402;17.866;2023-11-25T12:17:51;100055.53;;;-1.16;82.61
19795;BME280;10057;59.402;17.866;2023-11-25T12:20:22;100051.19;;;-1.15;82.36
19795;BME280;10057;59.402;17.866;2023-11-25T12:22:49;100049.44;;;-1.13;82.65
19795;BME280;10057;59.402;17.866;2023-11-25T12:25:16;100052.94;;;-1.14;82.79
19795;BME280;10057;59.402;17.866;2023-11-25T12:28:09;100050.34;;;-1.16;82.91
19795;BME280;10057;59.402;17.866;2023-11-25T12:30:40;100054.66;;;-1.15;82.76
19795;BME280;10057;59.402;17.866;2023-11-25T12:33:08;100054.66;;;-1.15;82.32
19795;BME280;10057;59.402;17.866;2023-11-25T12:35:36;100059.00;;;-1.12;82.10
19795;BME280;10057;59.402;17.866;2023-11-25T12:38:03;100068.53;;;-1.14;82.41
19795;BME280;10057;59.402;17.866;2023-11-25T12:40:42;100069.41;;;-1.14;82.16
19795;BME280;10057;59.402;17.866;2023-11-25T12:43:11;100069.41;;;-1.14;82.51
19795;BME280;10057;59.402;17.866;2023-11-25T12:45:40;100081.56;;;-1.14;82.47
19795;BME280;10057;59.402;17.866;2023-11-25T12:48:09;100073.75;;;-1.17;82.49
19795;BME280;10057;59.402;17.866;2023-11-25T12:51:02;100056.41;;;-1.18;81.88
19795;BME280;10057;59.402;17.866;2023-11-25T12:53:34;100058.16;;;-1.19;82.18
19795;BME280;10057;59.402;17.866;2023-11-25T12:56:06;100063.34;;;-1.21;81.90
19795;BME280;10057;59.402;17.866;2023-11-25T12:58:41;100061.59;;;-1.20;82.23
19795;BME280;10057;59.402;17.866;2023-11-25T13:01:10;100064.19;;;-1.20;82.23
19795;BME280;10057;59.402;17.866;2023-11-25T13:03:37;100065.06;;;-1.18;82.19
19795;BME280;10057;59.402;17.866;2023-11-25T13:06:08;100059.00;;;-1.15;81.90
19795;BME280;10057;59.402;17.866;2023-11-25T13:08:44;100063.34;;;-1.19;81.54
19795;BME280;10057;59.402;17.866;2023-11-25T13:11:12;100056.38;;;-1.17;82.05
19795;BME280;10057;59.402;17.866;2023-11-25T13:13:41;100050.34;;;-1.16;82.01